createdAt,value
2022-09-22T00:01:22.089Z,66.80
2022-09-22T00:03:50.011Z,66.70
2022-09-22T00:06:20.783Z,66.90
2022-09-22T00:08:49.031Z,65.90
2022-09-22T00:11:17.288Z,67.70
2022-09-22T00:14:03.449Z,65.90
2022-09-22T00:16:32.064Z,66.00
2022-09-22T00:18:58.863Z,67.60
2022-09-22T00:21:30.934Z,66.00
2022-09-22T00:24:00.550Z,65.90
2022-09-22T00:26:27.249Z,66.20
2022-09-22T00:28:53.930Z,65.80
2022-09-22T00:31:22.248Z,65.90
2022-09-22T00:33:49.415Z,67.00
2022-09-22T00:36:16.736Z,66.00
2022-09-22T00:38:43.611Z,65.70
2022-09-22T00:41:16.666Z,66.00
2022-09-22T00:43:43.786Z,65.70
2022-09-22T00:46:10.448Z,65.70
2022-09-22T00:48:39.627Z,64.50
2022-09-22T00:51:07.855Z,67.30
2022-09-22T00:53:35.212Z,66.10
2022-09-22T00:56:22.222Z,66.70
2022-09-22T00:58:58.210Z,65.80
2022-09-22T01:01:24.954Z,67.20
2022-09-22T01:03:51.697Z,67.00
2022-09-22T01:06:21.729Z,66.00
2022-09-22T01:08:48.767Z,65.40
2022-09-22T01:11:17.159Z,65.60
2022-09-22T01:13:52.679Z,66.00
2022-09-22T01:16:22.418Z,65.60
2022-09-22T01:18:49.092Z,65.60
2022-09-22T01:21:15.743Z,67.00
2022-09-22T01:23:48.379Z,66.00
2022-09-22T01:26:24.134Z,65.70
2022-09-22T01:29:04.104Z,65.50
2022-09-22T01:31:44.954Z,65.40
2022-09-22T01:34:16.919Z,65.30
2022-09-22T01:36:46.573Z,65.20
2022-09-22T01:39:22.859Z,65.40
2022-09-22T01:41:58.962Z,65.60
2022-09-22T01:44:30.145Z,66.20
2022-09-22T01:47:00.436Z,65.00
2022-09-22T01:49:28.403Z,65.20
2022-09-22T01:51:58.019Z,64.90
2022-09-22T01:54:33.098Z,65.00
2022-09-22T01:57:11.234Z,64.90
2022-09-22T01:59:39.431Z,64.90
2022-09-22T02:02:28.532Z,66.50
2022-09-22T02:04:57.841Z,64.90
2022-09-22T02:07:27.130Z,65.00
2022-09-22T02:09:55.340Z,64.90
2022-09-22T02:12:21.990Z,64.80
2022-09-22T02:14:49.645Z,66.80
2022-09-22T02:17:16.476Z,64.80
2022-09-22T02:19:43.334Z,64.70
2022-09-22T02:22:13.052Z,65.70
2022-09-22T02:24:39.715Z,63.90
2022-09-22T02:27:14.863Z,65.00
2022-09-22T02:29:43.686Z,64.70
2022-09-22T02:32:12.221Z,64.60
2022-09-22T02:34:39.083Z,66.40
2022-09-22T02:37:16.511Z,64.80
2022-09-22T02:39:57.039Z,64.80
2022-09-22T02:42:33.146Z,64.80
2022-09-22T02:45:15.115Z,65.00
2022-09-22T02:47:48.035Z,64.90
2022-09-22T02:50:16.819Z,64.90
2022-09-22T02:52:43.601Z,66.40
2022-09-22T02:55:10.991Z,64.90
2022-09-22T02:57:37.638Z,65.30
2022-09-22T03:00:05.370Z,66.60
2022-09-22T03:02:35.051Z,64.70
2022-09-22T03:05:01.929Z,64.90
2022-09-22T03:07:28.563Z,64.80
2022-09-22T03:09:55.166Z,64.70
2022-09-22T03:12:21.903Z,64.80
2022-09-22T03:14:49.985Z,65.00
2022-09-22T03:17:16.788Z,64.70
2022-09-22T03:19:43.430Z,65.20
2022-09-22T03:22:10.041Z,64.70
2022-09-22T03:24:36.677Z,64.60
2022-09-22T03:27:03.346Z,64.60
2022-09-22T03:29:29.946Z,64.60
2022-09-22T03:31:56.539Z,64.60
2022-09-22T03:34:23.165Z,64.70
2022-09-22T03:36:50.059Z,64.60
2022-09-22T03:39:16.677Z,65.20
2022-09-22T03:41:43.306Z,64.50
2022-09-22T03:44:10.394Z,64.60
2022-09-22T03:46:37.053Z,64.60
2022-09-22T03:49:03.802Z,64.50
2022-09-22T03:51:30.993Z,64.70
2022-09-22T03:53:57.686Z,65.20
2022-09-22T03:56:24.664Z,65.10
2022-09-22T03:58:51.350Z,65.10
2022-09-22T04:01:18.196Z,65.70
2022-09-22T04:03:44.848Z,65.60
2022-09-22T04:06:11.435Z,65.90
2022-09-22T04:08:38.254Z,66.50
2022-09-22T04:11:05.198Z,66.50
2022-09-22T04:13:31.967Z,66.40
2022-09-22T04:15:58.569Z,66.00
2022-09-22T04:18:25.798Z,65.80
2022-09-22T04:20:55.443Z,65.80
2022-09-22T04:23:22.056Z,65.60
2022-09-22T04:25:48.661Z,65.80
2022-09-22T04:28:15.281Z,65.80
2022-09-22T04:30:43.904Z,65.70
2022-09-22T04:33:11.358Z,65.70
2022-09-22T04:35:37.993Z,65.80
2022-09-22T04:38:05.134Z,65.70
2022-09-22T04:40:31.781Z,65.70
2022-09-22T04:42:58.463Z,65.80
2022-09-22T04:45:25.144Z,65.80
2022-09-22T04:47:52.827Z,65.80
2022-09-22T04:50:20.650Z,65.70
2022-09-22T04:52:52.247Z,65.80
2022-09-22T04:55:19.444Z,65.90
2022-09-22T04:57:49.827Z,65.90
2022-09-22T05:00:16.803Z,65.80
2022-09-22T05:02:43.774Z,65.70
2022-09-22T05:05:10.608Z,65.70
2022-09-22T05:07:40.286Z,65.80
2022-09-22T05:10:07.064Z,66.10
2022-09-22T05:12:37.369Z,66.00
2022-09-22T05:15:04.534Z,66.10
2022-09-22T05:17:31.139Z,65.80
2022-09-22T05:19:57.777Z,65.80
2022-09-22T05:22:24.477Z,65.80
2022-09-22T05:24:51.618Z,65.80
2022-09-22T05:27:18.775Z,65.70
2022-09-22T05:29:45.421Z,65.70
2022-09-22T05:32:12.117Z,65.60
2022-09-22T05:34:38.723Z,65.60
2022-09-22T05:37:05.388Z,65.60
2022-09-22T05:39:32.091Z,65.50
2022-09-22T05:41:59.552Z,65.50
2022-09-22T05:44:26.161Z,65.50
2022-09-22T05:46:52.779Z,65.20
2022-09-22T05:49:19.487Z,65.40
2022-09-22T05:51:46.684Z,65.30
2022-09-22T05:54:14.036Z,65.40
2022-09-22T05:56:40.764Z,65.50
2022-09-22T05:59:07.401Z,65.60
2022-09-22T06:01:34.227Z,65.40
2022-09-22T06:04:01.007Z,65.50
2022-09-22T06:06:27.673Z,65.50
2022-09-22T06:08:54.379Z,65.60
2022-09-22T06:11:21.038Z,65.70
2022-09-22T06:13:54.071Z,65.50
2022-09-22T06:16:21.213Z,66.30
2022-09-22T06:18:47.971Z,65.40
2022-09-22T06:21:15.145Z,65.70
2022-09-22T06:23:43.067Z,65.70
2022-09-22T06:26:09.805Z,65.70
2022-09-22T06:28:36.512Z,65.60
2022-09-22T06:31:03.116Z,65.60
2022-09-22T06:33:30.221Z,65.70
2022-09-22T06:35:58.255Z,65.80
2022-09-22T06:38:24.922Z,65.70
2022-09-22T06:40:51.630Z,65.80
2022-09-22T06:43:20.796Z,65.70
2022-09-22T06:45:47.481Z,65.60
2022-09-22T06:48:14.113Z,65.80
2022-09-22T06:50:41.221Z,65.60
2022-09-22T06:53:11.644Z,65.70
2022-09-22T06:55:38.391Z,65.70
2022-09-22T06:58:05.006Z,65.70
2022-09-22T07:00:33.091Z,65.80
2022-09-22T07:03:08.629Z,65.70
2022-09-22T07:05:37.205Z,65.80
2022-09-22T07:08:08.967Z,65.80
2022-09-22T07:10:38.757Z,65.70
2022-09-22T07:13:05.586Z,65.80
2022-09-22T07:15:33.005Z,65.80
2022-09-22T07:17:59.659Z,65.80
2022-09-22T07:20:26.307Z,65.80
2022-09-22T07:23:00.760Z,65.80
2022-09-22T07:25:28.385Z,65.80
2022-09-22T07:27:57.778Z,65.90
2022-09-22T07:30:26.242Z,65.90
2022-09-22T07:32:52.997Z,65.80
2022-09-22T07:35:19.753Z,65.90
2022-09-22T07:37:46.890Z,66.00
2022-09-22T07:40:14.683Z,65.80
2022-09-22T07:42:41.404Z,65.90
2022-09-22T07:45:12.796Z,66.20
2022-09-22T07:47:57.995Z,66.00
2022-09-22T07:50:24.609Z,66.10
2022-09-22T07:52:54.454Z,66.20
2022-09-22T07:55:24.165Z,66.00
2022-09-22T07:57:57.975Z,66.00
2022-09-22T08:00:25.698Z,66.10
2022-09-22T08:02:56.307Z,66.10
2022-09-22T08:05:23.718Z,66.10
2022-09-22T08:07:50.797Z,66.10
2022-09-22T08:10:18.277Z,66.30
2022-09-22T08:12:45.262Z,65.40
2022-09-22T08:15:12.620Z,65.60
2022-09-22T08:17:40.659Z,65.70
2022-09-22T08:20:07.952Z,65.60
2022-09-22T08:22:34.631Z,65.50
2022-09-22T08:25:01.239Z,65.40
2022-09-22T08:27:27.886Z,65.20
2022-09-22T08:29:55.095Z,65.00
2022-09-22T08:32:21.836Z,64.90
2022-09-22T08:34:48.443Z,64.90
2022-09-22T08:37:15.069Z,65.00
2022-09-22T08:39:41.689Z,65.00
2022-09-22T08:42:19.218Z,65.00
2022-09-22T08:44:46.571Z,65.00
2022-09-22T08:47:16.356Z,65.10
2022-09-22T08:50:04.463Z,65.20
2022-09-22T08:52:49.682Z,65.20
2022-09-22T08:55:20.936Z,65.30
2022-09-22T08:57:57.025Z,65.30
2022-09-22T09:00:25.373Z,65.40
2022-09-22T09:03:10.989Z,65.50
2022-09-22T09:05:59.511Z,65.60
2022-09-22T09:08:43.446Z,65.50
2022-09-22T09:11:26.373Z,65.60
2022-09-22T09:14:12.188Z,65.50
2022-09-22T09:17:05.299Z,65.50
2022-09-22T09:19:31.914Z,65.50
2022-09-22T09:22:01.979Z,65.50
2022-09-22T09:27:21.742Z,65.40
2022-09-22T09:29:57.279Z,65.40
2022-09-22T09:32:39.101Z,65.40
2022-09-22T09:35:06.430Z,65.30
2022-09-22T09:37:33.950Z,64.60
2022-09-22T09:40:01.789Z,65.10
2022-09-22T09:42:34.063Z,65.20
2022-09-22T09:45:02.876Z,65.30
2022-09-22T09:47:29.442Z,65.30
2022-09-22T09:49:56.178Z,65.40
2022-09-22T09:52:25.744Z,65.20
2022-09-22T09:54:53.658Z,65.00
2022-09-22T09:57:21.105Z,65.40
2022-09-22T10:00:07.364Z,65.40
2022-09-22T10:02:50.297Z,65.40
2022-09-22T10:05:16.904Z,64.90
2022-09-22T10:07:44.963Z,65.60
2022-09-22T10:10:23.825Z,65.50
2022-09-22T10:12:50.441Z,65.40
2022-09-22T10:15:24.534Z,65.10
2022-09-22T10:17:51.382Z,65.10
2022-09-22T10:20:18.040Z,64.90
2022-09-22T10:22:45.533Z,64.90
2022-09-22T10:25:32.027Z,64.50
2022-09-22T10:28:03.869Z,64.80
2022-09-22T10:30:37.425Z,65.00
2022-09-22T10:33:20.448Z,65.20
2022-09-22T10:35:53.630Z,65.20
2022-09-22T10:38:24.883Z,64.90
2022-09-22T10:41:11.766Z,64.10
2022-09-22T10:43:41.181Z,64.40
2022-09-22T10:46:28.646Z,64.50
2022-09-22T10:49:00.122Z,64.60
2022-09-22T10:51:30.286Z,64.60
2022-09-22T10:54:07.426Z,64.70
2022-09-22T10:56:37.581Z,64.70
2022-09-22T10:59:04.193Z,64.50
2022-09-22T11:01:30.875Z,64.60
2022-09-22T11:04:05.252Z,64.40
2022-09-22T11:07:07.435Z,64.30
2022-09-22T11:10:07.974Z,64.30
2022-09-22T11:12:43.743Z,64.10
2022-09-22T11:15:16.656Z,64.50
2022-09-22T11:17:54.706Z,64.50
2022-09-22T11:20:28.630Z,64.30
2022-09-22T11:22:58.035Z,64.40
2022-09-22T11:25:33.793Z,64.30
2022-09-22T11:28:03.438Z,64.20
2022-09-22T11:30:59.560Z,64.30
2022-09-22T11:33:42.742Z,64.20
2022-09-22T11:36:35.702Z,64.10
2022-09-22T11:39:21.079Z,64.00
2022-09-22T11:41:56.917Z,64.00
2022-09-22T11:44:23.526Z,63.90
2022-09-22T11:46:56.185Z,64.10
2022-09-22T11:49:41.708Z,64.20
2022-09-22T11:52:17.678Z,64.00
2022-09-22T11:55:00.541Z,64.00
2022-09-22T11:57:29.975Z,63.90
2022-09-22T11:59:59.390Z,63.90
2022-09-22T12:02:31.624Z,63.90
2022-09-22T12:04:58.410Z,63.80
2022-09-22T12:07:27.995Z,64.00
2022-09-22T12:10:02.922Z,64.00
2022-09-22T12:12:31.046Z,64.00
2022-09-22T12:15:00.510Z,64.00
2022-09-22T12:17:36.737Z,64.00
2022-09-22T12:20:10.523Z,64.10
2022-09-22T12:22:57.819Z,64.20
2022-09-22T12:25:48.999Z,64.40
2022-09-22T12:28:22.382Z,64.30
2022-09-22T12:30:54.321Z,64.10
2022-09-22T12:33:22.023Z,64.10
2022-09-22T12:35:53.287Z,64.10
2022-09-22T12:38:21.538Z,64.10
2022-09-22T12:40:49.840Z,64.10
2022-09-22T12:43:19.379Z,64.10
2022-09-22T12:45:46.363Z,64.10
2022-09-22T12:48:17.693Z,64.20
2022-09-22T12:50:45.399Z,64.40
2022-09-22T12:53:21.321Z,64.40
2022-09-22T12:55:51.992Z,64.40
2022-09-22T12:58:18.579Z,64.40
2022-09-22T13:00:46.162Z,64.40
2022-09-22T13:03:25.276Z,64.40
2022-09-22T13:05:54.958Z,64.40
2022-09-22T13:08:31.150Z,64.30
2022-09-22T13:10:59.262Z,64.30
2022-09-22T13:13:36.822Z,64.30
2022-09-22T13:16:05.118Z,64.30
2022-09-22T13:18:35.647Z,64.30
2022-09-22T13:21:14.551Z,64.30
2022-09-22T13:24:02.642Z,64.20
2022-09-22T13:26:39.448Z,64.30
2022-09-22T13:29:06.161Z,64.20
2022-09-22T13:31:38.772Z,64.20
2022-09-22T13:34:24.299Z,64.10
2022-09-22T13:36:51.998Z,64.10
2022-09-22T13:39:20.990Z,64.00
2022-09-22T13:41:52.343Z,63.70
2022-09-22T13:44:21.562Z,63.70
2022-09-22T13:46:50.052Z,63.80
2022-09-22T13:49:29.467Z,64.00
2022-09-22T13:51:57.635Z,64.10
2022-09-22T13:54:27.537Z,64.00
2022-09-22T13:56:54.971Z,64.10
2022-09-22T13:59:21.663Z,64.00
2022-09-22T14:01:49.367Z,64.10
2022-09-22T14:04:26.647Z,64.10
2022-09-22T14:06:55.972Z,64.00
2022-09-22T14:09:23.422Z,64.00
2022-09-22T14:11:50.378Z,64.10
2022-09-22T14:14:24.424Z,64.10
2022-09-22T14:16:51.082Z,64.00
2022-09-22T14:19:21.087Z,63.90
2022-09-22T14:21:58.413Z,63.90
2022-09-22T14:24:25.647Z,63.80
2022-09-22T14:26:52.387Z,63.70
2022-09-22T14:29:23.434Z,63.60
2022-09-22T14:31:53.648Z,63.50
2022-09-22T14:34:25.285Z,63.50
2022-09-22T14:36:53.060Z,63.50
2022-09-22T14:39:24.970Z,63.60
2022-09-22T14:41:59.148Z,63.60
2022-09-22T16:45:39.832Z,64.50
2022-09-22T16:48:07.155Z,64.30
2022-09-22T16:50:36.506Z,64.50
2022-09-22T16:53:04.246Z,64.40
2022-09-22T16:55:34.576Z,64.40
2022-09-22T16:58:05.663Z,64.40
2022-09-22T17:00:32.723Z,63.30
2022-09-22T17:02:59.617Z,63.90
2022-09-22T17:05:26.233Z,64.00
2022-09-22T17:07:53.356Z,64.20
2022-09-22T17:10:20.076Z,64.30
2022-09-22T17:12:46.726Z,64.50
2022-09-22T17:15:16.391Z,65.90
2022-09-22T17:17:43.590Z,64.40
2022-09-22T17:20:10.672Z,64.40
2022-09-22T17:22:37.536Z,64.30
2022-09-22T17:25:04.335Z,64.40
2022-09-22T17:27:30.953Z,65.60
2022-09-22T17:29:58.842Z,65.10
2022-09-22T17:32:28.081Z,64.40
2022-09-22T17:34:54.902Z,64.40
2022-09-22T17:37:21.746Z,65.80
2022-09-22T17:39:49.202Z,64.50
2022-09-22T17:42:15.985Z,64.30
2022-09-22T17:44:42.836Z,64.30
2022-09-22T17:47:28.274Z,64.20
2022-09-22T17:50:13.374Z,63.90
2022-09-22T17:52:40.029Z,63.90
2022-09-22T17:55:09.223Z,63.80
2022-09-22T17:57:37.024Z,63.70
2022-09-22T18:00:04.882Z,63.70
2022-09-22T18:02:32.363Z,63.70
2022-09-22T18:04:59.001Z,63.70
2022-09-22T18:07:26.642Z,63.80
2022-09-22T18:09:55.459Z,63.80
2022-09-22T18:12:24.669Z,63.80
2022-09-22T18:14:52.414Z,64.00
2022-09-22T18:17:20.811Z,64.00
2022-09-22T18:19:47.613Z,64.10
2022-09-22T18:22:17.029Z,64.80
2022-09-22T18:24:44.067Z,64.10
2022-09-22T18:27:13.201Z,64.10
2022-09-22T18:29:40.070Z,64.10
2022-09-22T18:32:06.733Z,64.10
2022-09-22T18:34:33.382Z,64.20
2022-09-22T18:37:00.891Z,64.20
2022-09-22T18:39:28.395Z,64.10
2022-09-22T18:41:55.103Z,64.10
2022-09-22T18:44:22.167Z,64.10
2022-09-22T18:46:48.928Z,64.10
2022-09-22T18:49:16.657Z,64.10
2022-09-22T18:51:49.076Z,64.20
2022-09-22T18:54:16.584Z,64.20
